createdAt,value
2022-12-10T00:02:08.018Z,5.17
2022-12-10T00:04:43.034Z,5.19
2022-12-10T00:07:17.995Z,5.19
2022-12-10T00:09:50.965Z,5.20
2022-12-10T00:12:23.224Z,5.16
2022-12-10T00:14:55.669Z,5.19
2022-12-10T00:17:28.069Z,5.12
2022-12-10T00:20:00.408Z,5.21
2022-12-10T00:22:34.626Z,5.19
2022-12-10T00:25:07.531Z,5.18
2022-12-10T00:27:39.729Z,5.17
2022-12-10T00:30:13.654Z,5.22
2022-12-10T00:32:45.874Z,5.18
2022-12-10T00:35:18.350Z,5.19
2022-12-10T00:37:51.066Z,5.24
2022-12-10T00:40:23.833Z,5.16
2022-12-10T00:42:56.106Z,5.11
2022-12-10T00:45:28.464Z,5.10
2022-12-10T00:48:00.588Z,5.12
2022-12-10T00:50:32.971Z,5.09
2022-12-10T00:53:05.513Z,5.08
2022-12-10T00:55:37.609Z,5.09
2022-12-10T00:58:09.686Z,5.10
2022-12-10T01:00:41.983Z,5.04
2022-12-10T01:03:14.150Z,5.15
2022-12-10T01:05:46.325Z,5.11
2022-12-10T01:08:19.519Z,5.14
2022-12-10T01:10:57.407Z,5.14
2022-12-10T01:13:29.428Z,5.05
2022-12-10T01:16:04.649Z,5.14
2022-12-10T01:18:36.918Z,5.01
2022-12-10T01:21:11.350Z,5.09
2022-12-10T01:23:45.487Z,5.06
2022-12-10T01:26:20.412Z,5.02
2022-12-10T01:28:56.244Z,5.04
2022-12-10T01:31:31.249Z,5.04
2022-12-10T01:34:06.562Z,4.97
2022-12-10T01:36:38.253Z,5.04
2022-12-10T01:39:12.543Z,5.01
2022-12-10T01:41:47.304Z,5.05
2022-12-10T01:45:01.134Z,5.04
2022-12-10T01:47:34.001Z,5.07
2022-12-10T01:50:08.468Z,5.07
2022-12-10T01:52:42.940Z,4.97
2022-12-10T01:55:42.910Z,5.08
2022-12-10T01:58:17.131Z,5.03
2022-12-10T02:01:07.534Z,5.00
2022-12-10T02:03:52.657Z,5.05
2022-12-10T02:06:34.392Z,4.99
2022-12-10T02:09:15.657Z,5.03
2022-12-10T02:11:55.995Z,5.04
2022-12-10T02:14:43.957Z,5.09
2022-12-10T02:17:20.422Z,4.85
2022-12-10T02:20:04.015Z,4.98
2022-12-10T02:22:40.555Z,4.91
2022-12-10T02:25:16.447Z,4.96
2022-12-10T02:27:54.861Z,4.98
2022-12-10T02:30:27.371Z,5.03
2022-12-10T02:33:01.708Z,5.01
2022-12-10T02:35:39.693Z,4.95
2022-12-10T02:38:17.773Z,4.98
2022-12-10T02:40:55.394Z,4.97
2022-12-10T02:43:32.267Z,4.89
2022-12-10T02:46:07.673Z,4.88
2022-12-10T02:48:42.451Z,5.00
2022-12-10T02:51:14.811Z,5.02
2022-12-10T02:53:48.306Z,5.06
2022-12-10T02:56:29.293Z,5.05
2022-12-10T02:59:15.488Z,5.04
2022-12-10T03:02:01.733Z,5.09
2022-12-10T03:04:41.818Z,5.11
2022-12-10T03:07:21.111Z,5.08
2022-12-10T03:09:58.969Z,4.89
2022-12-10T03:12:35.022Z,4.85
2022-12-10T03:15:11.670Z,4.82
2022-12-10T03:17:46.790Z,4.90
2022-12-10T03:20:19.589Z,4.86
2022-12-10T03:22:53.076Z,4.87
2022-12-10T03:25:27.971Z,4.91
2022-12-10T03:28:01.503Z,4.96
2022-12-10T03:30:38.347Z,4.98
2022-12-10T03:33:10.840Z,4.90
2022-12-10T03:35:43.353Z,4.97
2022-12-10T03:38:16.350Z,4.97
2022-12-10T03:40:50.860Z,4.95
2022-12-10T03:43:24.698Z,4.91
2022-12-10T03:45:57.040Z,4.98
2022-12-10T03:48:29.473Z,4.85
2022-12-10T03:51:01.628Z,4.79
2022-12-10T03:53:34.521Z,4.83
2022-12-10T03:56:06.824Z,4.82
2022-12-10T03:58:39.929Z,4.77
2022-12-10T04:01:12.256Z,4.84
2022-12-10T04:03:46.253Z,4.87
2022-12-10T04:06:20.817Z,4.95
2022-12-10T04:08:58.623Z,4.90
2022-12-10T04:11:31.650Z,5.01
2022-12-10T04:14:23.592Z,5.02
2022-12-10T04:16:56.031Z,5.00
2022-12-10T04:19:28.783Z,5.05
2022-12-10T04:22:18.760Z,5.08
2022-12-10T04:25:08.778Z,5.08
2022-12-10T04:27:42.441Z,5.11
2022-12-10T04:30:15.333Z,5.07
2022-12-10T04:32:47.385Z,5.08
2022-12-10T04:35:20.060Z,5.07
2022-12-10T04:37:52.199Z,5.12
2022-12-10T04:40:24.361Z,5.07
2022-12-10T04:42:56.593Z,5.11
2022-12-10T04:45:28.634Z,5.11
2022-12-10T04:48:00.943Z,4.96
2022-12-10T04:50:33.636Z,5.08
2022-12-10T04:53:06.179Z,5.11
2022-12-10T04:55:38.548Z,5.13
2022-12-10T04:58:10.580Z,5.12
2022-12-10T05:00:43.178Z,5.03
2022-12-10T05:03:15.450Z,5.12
2022-12-10T05:05:47.520Z,5.15
2022-12-10T05:08:21.705Z,5.16
2022-12-10T05:10:54.063Z,5.14
2022-12-10T05:13:26.421Z,5.16
2022-12-10T05:15:59.068Z,5.16
2022-12-10T05:18:31.882Z,5.15
2022-12-10T05:21:06.712Z,5.15
2022-12-10T05:23:38.173Z,5.13
2022-12-10T05:26:12.150Z,5.15
2022-12-10T05:28:46.101Z,5.17
2022-12-10T05:31:20.277Z,5.17
2022-12-10T05:33:53.566Z,5.16
2022-12-10T05:36:29.240Z,5.17
2022-12-10T05:39:01.849Z,5.16
2022-12-10T05:41:39.165Z,5.10
2022-12-10T05:44:12.015Z,5.13
2022-12-10T05:46:44.302Z,5.14
2022-12-10T05:49:16.619Z,5.16
2022-12-10T05:51:53.411Z,5.13
2022-12-10T05:54:25.404Z,5.17
2022-12-10T05:56:58.040Z,5.18
2022-12-10T05:59:30.158Z,5.17
2022-12-10T06:02:03.231Z,5.17
2022-12-10T06:04:37.979Z,5.18
2022-12-10T06:07:11.449Z,5.18
2022-12-10T06:09:44.058Z,5.18
2022-12-10T06:12:16.780Z,5.18
2022-12-10T06:14:49.858Z,5.17
2022-12-10T06:17:24.553Z,5.16
2022-12-10T06:19:58.658Z,5.16
2022-12-10T06:22:30.780Z,5.14
2022-12-10T06:25:03.140Z,5.13
2022-12-10T06:27:35.852Z,5.13
2022-12-10T06:30:11.627Z,5.14
2022-12-10T06:32:47.262Z,5.13
2022-12-10T06:35:22.364Z,5.13
2022-12-10T06:37:56.997Z,5.14
2022-12-10T06:40:27.582Z,5.13
2022-12-10T06:43:00.499Z,5.13
2022-12-10T06:45:32.637Z,5.12
2022-12-10T06:48:07.475Z,5.10
2022-12-10T06:50:39.960Z,5.06
2022-12-10T06:53:12.653Z,5.06
2022-12-10T06:55:45.430Z,5.07
2022-12-10T06:58:18.075Z,5.08
2022-12-10T07:00:51.794Z,5.11
2022-12-10T07:03:23.926Z,5.10
2022-12-10T07:05:58.520Z,5.11
2022-12-10T07:08:31.324Z,5.10
2022-12-10T07:11:07.773Z,5.11
2022-12-10T07:13:40.103Z,5.12
2022-12-10T07:16:17.100Z,5.10
2022-12-10T07:18:52.499Z,5.10
2022-12-10T07:21:27.241Z,5.13
2022-12-10T07:24:01.851Z,5.13
2022-12-10T07:26:35.880Z,5.13
2022-12-10T07:29:09.633Z,5.15
2022-12-10T07:31:42.035Z,5.13
2022-12-10T07:34:14.483Z,5.11
2022-12-10T07:36:46.675Z,5.06
2022-12-10T07:39:19.236Z,5.13
2022-12-10T07:41:53.682Z,5.13
2022-12-10T07:44:27.965Z,5.17
2022-12-10T07:47:00.158Z,5.19
2022-12-10T07:49:32.634Z,5.19
2022-12-10T07:52:05.130Z,5.18
2022-12-10T07:54:37.650Z,5.13
2022-12-10T07:57:10.782Z,5.14
2022-12-10T07:59:43.089Z,5.14
2022-12-10T08:02:15.140Z,5.20
2022-12-10T08:04:47.729Z,5.21
2022-12-10T08:07:20.001Z,5.24
2022-12-10T08:09:52.210Z,5.22
2022-12-10T08:12:24.336Z,5.26
2022-12-10T08:14:56.487Z,5.27
2022-12-10T08:17:28.515Z,5.28
2022-12-10T08:20:00.678Z,5.31
2022-12-10T08:22:35.179Z,5.31
2022-12-10T08:25:08.414Z,5.29
2022-12-10T08:27:40.474Z,5.22
2022-12-10T08:30:14.560Z,5.32
2022-12-10T08:32:47.222Z,5.32
2022-12-10T08:35:19.683Z,5.34
2022-12-10T08:37:51.757Z,5.36
2022-12-10T08:40:23.997Z,5.29
2022-12-10T08:42:57.544Z,5.31
2022-12-10T08:45:29.871Z,5.24
2022-12-10T08:48:02.621Z,5.25
2022-12-10T08:50:34.836Z,5.22
2022-12-10T08:53:07.500Z,5.24
2022-12-10T08:55:48.830Z,5.24
2022-12-10T08:58:22.264Z,5.19
2022-12-10T09:00:54.881Z,5.22
2022-12-10T09:03:27.038Z,5.11
2022-12-10T09:06:03.421Z,5.21
2022-12-10T09:08:36.152Z,5.23
2022-12-10T09:11:13.744Z,5.23
2022-12-10T09:13:46.776Z,5.20
2022-12-10T09:16:19.501Z,5.23
2022-12-10T09:18:51.573Z,5.31
2022-12-10T09:21:24.112Z,5.30
2022-12-10T09:23:56.591Z,5.28
2022-12-10T09:26:29.430Z,5.30
2022-12-10T09:29:01.816Z,5.26
2022-12-10T09:31:34.514Z,5.29
2022-12-10T09:34:06.695Z,5.29
2022-12-10T09:36:39.514Z,5.34
2022-12-10T09:39:11.886Z,5.31
2022-12-10T09:42:12.836Z,5.34
2022-12-10T09:44:56.033Z,5.35
2022-12-10T09:47:34.382Z,5.31
2022-12-10T09:50:18.903Z,5.27
2022-12-10T09:52:55.620Z,5.31
2022-12-10T09:55:34.351Z,5.34
2022-12-10T09:58:11.899Z,5.39
2022-12-10T10:00:48.282Z,5.18
2022-12-10T10:03:20.837Z,5.26
2022-12-10T10:05:55.132Z,5.10
2022-12-10T10:08:33.945Z,5.20
2022-12-10T10:11:13.178Z,5.26
2022-12-10T10:13:49.693Z,5.12
2022-12-10T10:16:26.516Z,5.18
2022-12-10T10:19:02.646Z,5.22
2022-12-10T10:21:38.449Z,5.23
2022-12-10T10:24:15.720Z,5.24
2022-12-10T10:26:49.049Z,5.21
2022-12-10T10:29:27.717Z,5.28
2022-12-10T10:32:15.846Z,5.25
2022-12-10T10:34:53.938Z,5.29
2022-12-10T10:37:30.083Z,5.33
2022-12-10T10:40:03.000Z,5.32
2022-12-10T10:42:40.600Z,5.25
2022-12-10T10:45:39.181Z,5.35
2022-12-10T10:48:15.986Z,5.35
2022-12-10T10:50:51.814Z,5.36
2022-12-10T10:53:43.766Z,5.31
2022-12-10T10:56:19.714Z,5.27
2022-12-10T10:58:58.172Z,5.35
2022-12-10T11:01:46.628Z,5.40
2022-12-10T11:04:20.357Z,5.40
2022-12-10T11:06:57.977Z,5.32
2022-12-10T11:09:34.681Z,5.34
2022-12-10T11:12:23.132Z,5.45
2022-12-10T11:14:55.464Z,5.42
2022-12-10T11:17:29.773Z,5.29
2022-12-10T11:20:17.326Z,5.46
2022-12-10T11:22:55.380Z,5.53
2022-12-10T11:25:40.445Z,5.46
2022-12-10T11:28:19.192Z,5.44
2022-12-10T11:31:01.087Z,5.39
2022-12-10T11:33:42.489Z,5.37
2022-12-10T11:36:29.568Z,5.31
2022-12-10T11:39:12.545Z,5.35
2022-12-10T11:41:51.873Z,5.33
2022-12-10T11:44:36.181Z,5.30
2022-12-10T11:47:38.235Z,5.30
2022-12-10T11:50:23.275Z,5.22
2022-12-10T11:53:10.123Z,5.22
2022-12-10T11:55:56.123Z,5.27
2022-12-10T11:58:48.817Z,5.23
2022-12-10T12:01:34.444Z,5.32
2022-12-10T12:04:39.563Z,5.25
2022-12-10T12:07:29.249Z,5.14
2022-12-10T12:10:53.493Z,5.18
2022-12-10T12:13:31.853Z,5.20
2022-12-10T12:16:09.572Z,5.12
2022-12-10T12:18:50.660Z,5.09
2022-12-10T12:21:23.175Z,5.16
2022-12-10T12:24:04.251Z,5.13
2022-12-10T12:26:41.255Z,5.15
2022-12-10T12:29:22.361Z,5.08
2022-12-10T12:32:03.644Z,5.01
2022-12-10T12:34:53.854Z,5.17
2022-12-10T12:37:37.142Z,5.28
2022-12-10T12:40:16.754Z,5.14
2022-12-10T12:42:57.220Z,4.88
2022-12-10T12:45:36.371Z,4.90
2022-12-10T12:48:19.016Z,5.12
2022-12-10T12:50:56.235Z,5.14
2022-12-10T12:53:34.820Z,5.18
2022-12-10T12:56:13.497Z,5.14
2022-12-10T12:59:03.138Z,5.07
2022-12-10T13:01:44.938Z,5.09
2022-12-10T13:04:18.356Z,5.08
2022-12-10T13:07:28.760Z,4.93
2022-12-10T13:10:24.913Z,4.96
2022-12-10T13:13:25.077Z,5.02
2022-12-10T13:15:57.732Z,5.04
2022-12-10T13:22:57.036Z,5.02
2022-12-10T13:25:57.004Z,5.08
2022-12-10T13:28:53.320Z,5.11
2022-12-10T13:31:40.482Z,5.05
2022-12-10T13:34:35.119Z,5.01
2022-12-10T13:37:32.729Z,4.98
2022-12-10T13:40:16.834Z,5.02
2022-12-10T13:43:15.477Z,5.05
2022-12-10T13:45:48.987Z,5.07
2022-12-10T13:48:28.512Z,5.03
2022-12-10T13:51:13.842Z,5.04
2022-12-10T13:53:56.263Z,5.06
2022-12-10T13:56:35.422Z,4.97
2022-12-10T13:59:22.106Z,4.90
2022-12-10T14:02:13.079Z,5.04
2022-12-10T14:05:02.564Z,5.07
2022-12-10T14:07:36.580Z,5.02
2022-12-10T14:10:19.288Z,5.02
2022-12-10T14:12:51.978Z,4.94
2022-12-10T14:15:27.381Z,5.01
2022-12-10T14:18:04.445Z,4.98
2022-12-10T14:20:40.232Z,4.99
2022-12-10T14:23:46.379Z,4.96
2022-12-10T14:26:21.468Z,4.83
2022-12-10T14:28:59.213Z,4.82
2022-12-10T14:31:52.853Z,4.74
2022-12-10T14:34:29.702Z,4.93
2022-12-10T14:37:07.221Z,4.92
2022-12-10T14:39:42.278Z,4.86
2022-12-10T14:42:18.815Z,4.77
2022-12-10T14:45:01.621Z,4.90
2022-12-10T14:47:46.861Z,4.74
2022-12-10T14:50:21.442Z,4.80
2022-12-10T14:52:55.682Z,4.82
2022-12-10T14:55:29.210Z,4.81
2022-12-10T14:58:05.490Z,4.70
2022-12-10T15:00:37.773Z,4.73
2022-12-10T15:03:20.356Z,4.70
2022-12-10T15:06:00.546Z,4.63
2022-12-10T15:08:33.307Z,4.46
2022-12-10T15:11:06.777Z,4.57
2022-12-10T15:13:47.669Z,4.63
2022-12-10T15:16:30.544Z,4.67
2022-12-10T15:19:18.328Z,4.60
2022-12-10T15:21:52.057Z,4.51
2022-12-10T15:24:30.159Z,4.64
2022-12-10T15:27:02.559Z,4.65
2022-12-10T15:29:38.039Z,4.67
2022-12-10T15:32:18.490Z,4.67
2022-12-10T15:34:55.589Z,4.58
2022-12-10T15:37:30.261Z,4.64
2022-12-10T15:40:05.575Z,4.60
2022-12-10T15:42:43.640Z,4.55
2022-12-10T15:45:26.969Z,4.50
2022-12-10T15:48:00.949Z,4.43
2022-12-10T15:50:33.321Z,4.56
2022-12-10T15:53:05.775Z,4.61
2022-12-10T15:55:38.280Z,4.52
2022-12-10T15:58:14.847Z,4.46
2022-12-10T16:00:47.882Z,4.49
2022-12-10T16:03:20.775Z,4.55
2022-12-10T16:05:52.850Z,4.60
2022-12-10T16:08:28.140Z,4.58
2022-12-10T16:11:05.453Z,4.58
2022-12-10T16:13:41.410Z,4.52
2022-12-10T16:16:14.549Z,4.63
2022-12-10T16:18:48.079Z,4.67
2022-12-10T16:21:20.523Z,4.71
2022-12-10T16:23:53.991Z,4.75
2022-12-10T16:26:26.404Z,4.71
2022-12-10T16:28:58.705Z,4.72
2022-12-10T16:31:30.991Z,4.70
2022-12-10T16:34:03.375Z,4.71
2022-12-10T16:36:37.238Z,4.53
2022-12-10T16:39:10.388Z,4.58
2022-12-10T16:41:42.920Z,4.64
2022-12-10T16:44:15.276Z,4.61
2022-12-10T16:46:47.553Z,4.61
2022-12-10T16:49:19.822Z,4.58
2022-12-10T16:51:51.956Z,4.60
2022-12-10T16:54:24.467Z,4.63
2022-12-10T16:56:56.785Z,4.65
2022-12-10T16:59:29.356Z,4.58
2022-12-10T17:02:01.645Z,4.53
2022-12-10T17:04:34.016Z,4.54
2022-12-10T17:07:06.173Z,4.54
2022-12-10T17:09:38.697Z,4.54
2022-12-10T17:12:11.860Z,4.38
2022-12-10T17:14:47.794Z,4.62
2022-12-10T17:17:19.936Z,4.61
2022-12-10T17:19:52.260Z,4.52
2022-12-10T17:22:24.437Z,4.47
2022-12-10T17:24:56.927Z,4.53
2022-12-10T17:27:30.402Z,4.48
2022-12-10T17:30:05.930Z,4.44
2022-12-10T17:32:38.056Z,4.49
2022-12-10T17:35:11.429Z,4.48
2022-12-10T17:37:44.066Z,4.41
2022-12-10T17:40:19.976Z,4.41
2022-12-10T17:42:52.357Z,4.38
2022-12-10T17:45:24.865Z,4.45
2022-12-10T17:47:57.016Z,4.44
2022-12-10T17:50:33.991Z,4.38
2022-12-10T17:53:10.637Z,4.39
2022-12-10T17:55:48.254Z,4.33
2022-12-10T17:58:24.145Z,4.22
2022-12-10T18:00:57.290Z,4.29
2022-12-10T18:03:29.522Z,4.30
2022-12-10T18:06:01.780Z,4.40
2022-12-10T18:08:33.947Z,4.39
2022-12-10T18:11:06.187Z,4.31
2022-12-10T18:13:38.928Z,4.32
2022-12-10T18:16:15.263Z,4.41
2022-12-10T18:18:47.690Z,4.26
2022-12-10T18:21:29.777Z,4.28
2022-12-10T18:24:04.862Z,4.34
2022-12-10T18:26:37.883Z,4.29
2022-12-10T18:29:14.911Z,4.33
2022-12-10T18:31:47.627Z,4.32
2022-12-10T18:34:20.221Z,4.32
2022-12-10T18:36:52.543Z,4.37
2022-12-10T18:39:27.361Z,4.41
2022-12-10T18:41:59.923Z,4.36
2022-12-10T18:44:32.922Z,4.34
2022-12-10T18:47:05.266Z,4.37
2022-12-10T18:49:38.372Z,4.41
2022-12-10T18:52:11.601Z,4.37
2022-12-10T18:54:43.762Z,4.32
2022-12-10T18:57:34.646Z,4.35
2022-12-10T19:00:14.734Z,4.30
2022-12-10T19:02:48.030Z,4.40
2022-12-10T19:05:20.848Z,4.38
2022-12-10T19:07:53.450Z,4.33
2022-12-10T19:10:26.807Z,4.36
2022-12-10T19:12:59.362Z,4.25
2022-12-10T19:15:31.741Z,4.22
2022-12-10T19:18:04.587Z,4.25
2022-12-10T19:20:36.859Z,4.29
2022-12-10T19:23:09.170Z,4.28
2022-12-10T19:25:41.772Z,4.28
2022-12-10T19:28:19.529Z,4.28
2022-12-10T19:30:52.662Z,4.16
2022-12-10T19:33:25.228Z,4.25
2022-12-10T19:35:57.420Z,4.26
2022-12-10T19:38:29.685Z,4.26
2022-12-10T19:41:02.662Z,4.23
2022-12-10T19:43:34.806Z,4.25
2022-12-10T19:46:16.822Z,4.29
2022-12-10T19:48:49.891Z,4.07
2022-12-10T19:51:24.640Z,4.23
2022-12-10T19:53:56.915Z,4.23
2022-12-10T19:56:31.780Z,4.16
2022-12-10T19:59:11.287Z,4.12
2022-12-10T20:01:46.916Z,4.14
2022-12-10T20:04:20.633Z,4.12
2022-12-10T20:06:52.941Z,4.15
2022-12-10T20:09:28.329Z,4.14
2022-12-10T20:12:00.660Z,4.24
2022-12-10T20:14:33.165Z,4.18
2022-12-10T20:17:06.864Z,4.22
2022-12-10T20:19:39.398Z,4.14
2022-12-10T20:22:12.997Z,4.15
2022-12-10T20:24:45.372Z,4.21
2022-12-10T20:27:18.413Z,4.21
2022-12-10T20:29:51.433Z,4.13
2022-12-10T20:32:24.341Z,4.13
2022-12-10T20:34:56.642Z,4.13
2022-12-10T20:37:29.906Z,4.06
2022-12-10T20:40:30.352Z,4.09
2022-12-10T20:42:54.484Z,4.04
2022-12-10T20:45:26.711Z,4.05
2022-12-10T20:48:00.932Z,4.14
2022-12-10T20:50:33.820Z,4.12
2022-12-10T20:53:07.436Z,4.08
2022-12-10T20:55:40.784Z,4.07
2022-12-10T20:58:13.557Z,4.07
2022-12-10T21:00:46.135Z,4.07
2022-12-10T21:03:18.382Z,4.09
2022-12-10T21:05:50.852Z,4.09
2022-12-10T21:08:23.604Z,4.09
2022-12-10T21:10:57.079Z,4.13
2022-12-10T21:13:30.953Z,4.15
2022-12-10T21:16:05.136Z,4.13
2022-12-10T21:18:37.292Z,4.17
2022-12-10T21:21:12.649Z,4.15
2022-12-10T21:23:45.355Z,4.18
2022-12-10T21:26:18.043Z,4.21
2022-12-10T21:28:50.173Z,4.21
2022-12-10T21:31:26.373Z,4.14
2022-12-10T21:33:58.799Z,4.22
2022-12-10T21:36:31.323Z,4.23
2022-12-10T21:39:04.531Z,4.20
2022-12-10T21:41:54.317Z,4.27
2022-12-10T21:44:26.749Z,4.09
2022-12-10T21:46:59.054Z,4.17
2022-12-10T21:49:31.325Z,4.08
2022-12-10T21:52:03.707Z,4.17
2022-12-10T21:54:35.895Z,4.13
2022-12-10T21:57:08.323Z,4.15
2022-12-10T21:59:41.120Z,4.09
2022-12-10T22:02:14.015Z,4.17
2022-12-10T22:04:46.613Z,4.14
2022-12-10T22:07:19.056Z,4.13
2022-12-10T22:09:51.610Z,4.15
2022-12-10T22:12:23.899Z,4.12
2022-12-10T22:14:56.742Z,4.10
2022-12-10T22:17:29.000Z,4.16
2022-12-10T22:20:01.660Z,4.26
2022-12-10T22:22:34.905Z,4.21
2022-12-10T22:25:08.368Z,4.13
2022-12-10T22:27:42.019Z,4.15
2022-12-10T22:30:16.074Z,4.11
2022-12-10T22:32:50.176Z,4.07
2022-12-10T22:35:22.756Z,3.94
2022-12-10T22:37:55.379Z,3.99
2022-12-10T22:40:28.170Z,3.97
2022-12-10T22:43:20.125Z,4.07
2022-12-10T22:45:56.663Z,4.03
2022-12-10T22:48:29.727Z,4.06
2022-12-10T22:51:07.334Z,4.09
2022-12-10T22:53:40.314Z,4.04
2022-12-10T22:56:15.425Z,4.05
2022-12-10T22:58:53.715Z,4.03
2022-12-10T23:01:27.543Z,4.03
2022-12-10T23:03:59.987Z,4.09
2022-12-10T23:06:32.091Z,4.09
2022-12-10T23:09:04.559Z,4.07
2022-12-10T23:11:36.917Z,4.11
2022-12-10T23:14:09.282Z,4.06
2022-12-10T23:16:44.001Z,3.93
2022-12-10T23:19:16.916Z,3.82
2022-12-10T23:21:49.111Z,3.87
2022-12-10T23:24:22.268Z,3.94
2022-12-10T23:26:54.959Z,3.97
2022-12-10T23:29:27.956Z,3.97
2022-12-10T23:32:00.211Z,4.03
2022-12-10T23:34:36.787Z,3.96
2022-12-10T23:37:10.309Z,4.00
2022-12-10T23:39:43.644Z,3.91
2022-12-10T23:42:16.091Z,3.95
2022-12-10T23:44:50.749Z,4.01
2022-12-10T23:47:21.406Z,3.95
2022-12-10T23:49:53.863Z,3.98
2022-12-10T23:52:26.208Z,3.93
2022-12-10T23:54:58.571Z,3.93
2022-12-10T23:57:30.761Z,3.88
